Terminal Aerodrome Forecast
Issued by NWS Sterling, VA

Current Version | Previous Version | Graphics & Text | Print | Product List | Glossary On
Versions: 1 2 3 4 5 6 7 8 9 10 11 12 13 14 15 16 17 18 19 20 21
000
FTUS41 KLWX 202100 AAA
TAFDCA
TAF AMD
KDCA 202100Z 2021/2118 VRB04KT P6SM BKN100
     FM210000 00000KT P6SM BKN070
     FM211200 VRB03KT P6SM SCT200=

USA.gov is the U.S. government's official web portal to all federal, state and local government web resources and services.